Huy, Belgium
Current Conditions -  °F | °C
As of 3:50 PM on Monday 24 Nov 2014 (Local Time) from EBLG Reporting Station
Few Clouds Few Clouds  
Wind Chill: 44°   Ceiling: Unl
Heat Index: 46°   Visibility: 6mi
Dew Point: 39°   Wind: 6mph
Humidity: 76%   Direction: 30°NNE
Pressure: 30.3"   Gusts: NA
Location:  50.52°N, 5.23°E
Report Text: EBLG 241450Z 03005KT 9999 FEW022 08/04 Q1026 NOSIG
Loading
Personal Weather Stations






























Interactive Weather Map New forecast layout! Learn more

10-Day Weather Forecast

Advertisements
Track Severe Weather on mobile